Time;durP1;ratioP1;P1;durP2;ratioP2;P2;SDS_P1;SDS_P2;PMS_P1;PMS_P2;Temp;Humidity;BMP_temperature;BMP_pressure;BME280_temperature;BME280_humidity;BME280_pressure;Samples;Min_cycle;Max_cycle;Signal;HPM_P1;HPM_P2
2022/04/24 00:00:38;;;;;;;22.75;20.25;;;;;;;;;;5086242;28;20066;-65
2022/04/24 00:03:04;;;;;;;24.75;22.13;;;;;;;;;;5088408;28;20024;-65
2022/04/24 00:05:30;;;;;;;24.30;21.63;;;;;;;;;;5088591;28;20038;-65
2022/04/24 00:07:55;;;;;;;26.50;22.40;;;;;;;;;;5087418;28;20032;-65
2022/04/24 00:10:23;;;;;;;27.67;22.20;;;;;;;;;;5081529;28;20083;-65
2022/04/24 00:12:50;;;;;;;23.25;20.75;;;;;;;;;;5077411;28;20494;-65
2022/04/24 00:15:16;;;;;;;23.88;21.38;;;;;;;;;;5069938;28;20036;-65
2022/04/24 00:17:41;;;;;;;23.17;20.05;;;;;;;;;;5070066;28;20032;-65
2022/04/24 00:20:08;;;;;;;24.23;21.77;;;;;;;;;;5080048;28;20491;-65
2022/04/24 00:22:33;;;;;;;26.65;21.25;;;;;;;;;;5088012;28;20036;-65
2022/04/24 00:24:59;;;;;;;22.40;20.10;;;;;;;;;;5078710;28;20039;-65
2022/04/24 00:27:24;;;;;;;28.38;23.02;;;;;;;;;;5084111;28;20495;-65
2022/04/24 00:29:50;;;;;;;24.35;21.77;;;;;;;;;;5087297;28;20027;-65
2022/04/24 00:32:16;;;;;;;23.50;21.02;;;;;;;;;;5076973;28;20112;-65
2022/04/24 00:34:42;;;;;;;24.70;21.42;;;;;;;;;;5069689;28;20508;-65
2022/04/24 00:37:08;;;;;;;30.23;22.45;;;;;;;;;;5079803;28;20036;-66
2022/04/24 00:39:33;;;;;;;25.13;22.20;;;;;;;;;;5085701;28;20064;-65
2022/04/24 00:41:59;;;;;;;24.30;21.70;;;;;;;;;;5069371;28;20032;-65
2022/04/24 00:44:27;;;;;;;25.17;21.67;;;;;;;;;;5069038;28;20059;-65
2022/04/24 00:47:24;;;;;;;24.80;22.08;;;;;;;;;;5080021;28;20657;-65
2022/04/24 00:49:50;;;;;;;25.83;22.17;;;;;;;;;;5076193;28;20094;-65
2022/04/24 00:52:16;;;;;;;25.40;22.05;;;;;;;;;;5080848;28;20402;-65
2022/04/24 00:54:42;;;;;;;24.20;21.42;;;;;;;;;;5083632;28;20036;-65
2022/04/24 00:57:09;;;;;;;27.83;21.73;;;;;;;;;;5074272;28;20033;-65
2022/04/24 00:59:37;;;;;;;24.00;21.48;;;;;;;;;;5069331;28;20068;-65
2022/04/24 01:02:07;;;;;;;28.42;22.55;;;;;;;;;;5079421;28;20707;-65
2022/04/24 01:04:34;;;;;;;24.27;21.75;;;;;;;;;;5081105;28;20040;-65
2022/04/24 01:07:00;;;;;;;26.00;22.52;;;;;;;;;;5084329;28;20110;-65
2022/04/24 01:09:26;;;;;;;26.27;22.08;;;;;;;;;;5080886;28;20546;-65
2022/04/24 01:11:55;;;;;;;24.38;21.40;;;;;;;;;;5068692;28;20038;-65
2022/04/24 01:14:25;;;;;;;24.50;21.70;;;;;;;;;;5075681;28;20028;-65
2022/04/24 01:16:51;;;;;;;24.27;21.67;;;;;;;;;;5080461;28;20028;-65
2022/04/24 01:19:19;;;;;;;24.95;22.25;;;;;;;;;;5079221;28;20032;-65
2022/04/24 01:21:47;;;;;;;27.83;23.20;;;;;;;;;;5082169;28;20036;-65
2022/04/24 01:24:16;;;;;;;27.50;23.02;;;;;;;;;;5078112;28;20055;-65
2022/04/24 01:26:42;;;;;;;;;;;;;;;;;;5084307;28;20048;-64
2022/04/24 01:29:09;;;;;;;25.70;22.40;;;;;;;;;;5084232;28;19916;-65
2022/04/24 01:31:35;;;;;;;25.83;22.13;;;;;;;;;;5083391;28;20085;-64
2022/04/24 01:34:01;;;;;;;26.42;22.83;;;;;;;;;;5075127;28;20040;-64
2022/04/24 01:36:27;;;;;;;24.25;21.38;;;;;;;;;;5077834;28;20032;-65
2022/04/24 01:38:52;;;;;;;26.70;22.35;;;;;;;;;;5075155;28;20028;-64
2022/04/24 01:41:18;;;;;;;24.08;21.52;;;;;;;;;;5071756;28;20255;-65
2022/04/24 01:43:44;;;;;;;24.42;21.83;;;;;;;;;;5082417;28;20058;-64
2022/04/24 01:46:11;;;;;;;24.77;22.02;;;;;;;;;;5086643;28;20035;-65
2022/04/24 01:48:36;;;;;;;27.45;22.63;;;;;;;;;;5072044;28;20037;-65
2022/04/24 01:51:07;;;;;;;25.90;23.13;;;;;;;;;;5075079;28;20030;-65
2022/04/24 01:53:33;;;;;;;24.63;22.02;;;;;;;;;;5082998;28;20120;-65
2022/04/24 01:56:01;;;;;;;26.23;23.13;;;;;;;;;;5076796;28;20051;-65
2022/04/24 01:58:27;;;;;;;29.35;23.02;;;;;;;;;;5071201;28;20032;-64
2022/04/24 02:00:53;;;;;;;25.92;23.05;;;;;;;;;;5081500;28;20062;-66
2022/04/24 02:03:20;;;;;;;24.85;21.92;;;;;;;;;;5086917;28;20056;-66
2022/04/24 02:05:46;;;;;;;27.67;22.90;;;;;;;;;;5085794;28;20071;-65
2022/04/24 02:08:12;;;;;;;25.40;21.90;;;;;;;;;;5087527;28;20060;-65
2022/04/24 02:10:38;;;;;;;25.98;22.00;;;;;;;;;;5081265;28;20506;-65
2022/04/24 02:13:04;;;;;;;25.13;20.25;;;;;;;;;;5081520;28;20035;-66
2022/04/24 02:15:30;;;;;;;25.35;21.38;;;;;;;;;;5086825;28;20032;-67
2022/04/24 02:17:56;;;;;;;23.92;21.30;;;;;;;;;;5082912;28;20040;-66
2022/04/24 02:20:22;;;;;;;25.65;22.05;;;;;;;;;;5075809;28;20040;-66
2022/04/24 02:22:49;;;;;;;24.52;21.50;;;;;;;;;;5089011;28;20066;-66
2022/04/24 02:25:15;;;;;;;29.38;23.02;;;;;;;;;;5080142;28;20032;-66
2022/04/24 02:27:41;;;;;;;26.85;22.75;;;;;;;;;;5075930;28;20025;-66
2022/04/24 02:30:08;;;;;;;28.13;24.38;;;;;;;;;;5070398;28;20045;-66
2022/04/24 02:32:34;;;;;;;25.40;22.50;;;;;;;;;;5075762;28;20033;-66
2022/04/24 02:35:00;;;;;;;30.00;23.88;;;;;;;;;;5078787;28;20097;-65
2022/04/24 02:37:26;;;;;;;28.55;24.00;;;;;;;;;;5078672;28;20033;-66
2022/04/24 02:39:52;;;;;;;28.38;24.50;;;;;;;;;;5079917;28;20039;-66
2022/04/24 02:42:18;;;;;;;28.13;24.23;;;;;;;;;;5073039;28;20121;-66
2022/04/24 02:44:44;;;;;;;28.85;24.33;;;;;;;;;;5079405;28;20433;-66
2022/04/24 02:47:10;;;;;;;28.88;24.20;;;;;;;;;;5077785;28;20032;-66
2022/04/24 02:49:36;;;;;;;32.75;25.27;;;;;;;;;;5071287;28;20509;-66
2022/04/24 02:52:02;;;;;;;31.33;27.35;;;;;;;;;;5081898;28;20032;-67
2022/04/24 02:54:28;;;;;;;33.13;27.92;;;;;;;;;;5083381;28;20040;-68
2022/04/24 02:56:53;;;;;;;34.45;29.77;;;;;;;;;;5077661;28;20497;-70
2022/04/24 02:59:19;;;;;;;35.08;29.50;;;;;;;;;;5076080;28;20038;-69
2022/04/24 03:01:45;;;;;;;36.00;28.45;;;;;;;;;;5078529;28;20111;-70
2022/04/24 03:04:11;;;;;;;37.00;30.73;;;;;;;;;;5081319;28;20031;-69
2022/04/24 03:06:38;;;;;;;39.20;31.83;;;;;;;;;;5084082;28;20024;-68
2022/04/24 03:09:05;;;;;;;34.38;30.52;;;;;;;;;;5086675;28;20480;-68
2022/04/24 03:11:30;;;;;;;38.45;31.27;;;;;;;;;;5071409;28;20119;-68
2022/04/24 03:13:56;;;;;;;39.30;31.83;;;;;;;;;;5082024;28;20578;-69
2022/04/24 03:16:22;;;;;;;37.67;30.48;;;;;;;;;;5085973;28;20035;-69
2022/04/24 03:18:47;;;;;;;36.30;31.05;;;;;;;;;;5083731;28;20031;-69
2022/04/24 03:21:13;;;;;;;36.15;29.13;;;;;;;;;;5089085;28;20039;-68
2022/04/24 03:23:39;;;;;;;33.78;30.10;;;;;;;;;;5083253;28;20493;-68
2022/04/24 03:26:05;;;;;;;32.75;29.23;;;;;;;;;;5088702;28;20107;-69
2022/04/24 03:28:30;;;;;;;34.47;29.88;;;;;;;;;;5083969;28;20557;-68
2022/04/24 03:30:56;;;;;;;34.13;30.27;;;;;;;;;;5090394;28;20040;-70
2022/04/24 03:33:21;;;;;;;34.53;30.48;;;;;;;;;;5083534;28;20024;-68
2022/04/24 03:35:47;;;;;;;35.55;30.05;;;;;;;;;;5084590;28;20048;-70
2022/04/24 03:38:12;;;;;;;35.83;29.23;;;;;;;;;;5086497;28;20044;-69
2022/04/24 03:40:39;;;;;;;34.78;30.27;;;;;;;;;;5084029;28;20032;-70
2022/04/24 03:43:05;;;;;;;35.85;30.73;;;;;;;;;;5076614;28;20030;-70
2022/04/24 03:45:30;;;;;;;39.65;31.35;;;;;;;;;;5080080;28;20541;-70
2022/04/24 03:47:56;;;;;;;41.17;36.53;;;;;;;;;;5081617;28;20119;-69
2022/04/24 03:50:22;;;;;;;40.47;36.20;;;;;;;;;;5074393;28;20033;-68
2022/04/24 03:52:47;;;;;;;40.22;34.90;;;;;;;;;;5081983;28;20040;-68
2022/04/24 03:55:13;;;;;;;39.28;35.10;;;;;;;;;;5081003;28;20125;-68
2022/04/24 03:57:39;;;;;;;41.40;34.05;;;;;;;;;;5073641;28;20060;-68
2022/04/24 04:00:07;;;;;;;39.15;34.03;;;;;;;;;;5070514;28;20517;-67
2022/04/24 04:02:44;;;;;;;42.00;34.20;;;;;;;;;;5072315;28;20028;-70
2022/04/24 04:05:10;;;;;;;37.72;31.90;;;;;;;;;;5084270;28;20044;-69
2022/04/24 04:07:36;;;;;;;39.08;31.63;;;;;;;;;;5087883;28;20405;-69
2022/04/24 04:10:02;;;;;;;41.65;33.85;;;;;;;;;;5078170;28;20411;-68
2022/04/24 04:12:28;;;;;;;41.70;33.83;;;;;;;;;;5086909;28;20032;-68
2022/04/24 04:14:53;;;;;;;40.85;34.50;;;;;;;;;;5072982;28;20459;-70
2022/04/24 04:17:19;;;;;;;46.10;34.63;;;;;;;;;;5068688;28;20040;-68
2022/04/24 04:19:45;;;;;;;43.85;34.05;;;;;;;;;;5075080;28;20093;-69
2022/04/24 04:22:10;;;;;;;51.08;37.47;;;;;;;;;;5086326;28;20016;-70
2022/04/24 04:24:36;;;;;;;48.33;36.22;;;;;;;;;;5084796;28;20482;-69
2022/04/24 04:27:03;;;;;;;48.85;36.78;;;;;;;;;;5082659;28;20031;-68
2022/04/24 04:29:29;;;;;;;51.28;37.15;;;;;;;;;;5083480;28;20040;-68
2022/04/24 04:31:55;;;;;;;62.97;40.90;;;;;;;;;;5074628;28;20479;-66
2022/04/24 04:34:21;;;;;;;61.90;39.92;;;;;;;;;;5069442;28;20037;-67
2022/04/24 04:36:47;;;;;;;68.95;40.72;;;;;;;;;;5079960;28;20032;-68
2022/04/24 04:39:13;;;;;;;72.90;43.05;;;;;;;;;;5078295;28;20737;-66
2022/04/24 04:41:38;;;;;;;100.57;55.10;;;;;;;;;;5069153;28;20028;-69
2022/04/24 04:44:05;;;;;;;82.22;46.08;;;;;;;;;;5073948;28;20028;-67
2022/04/24 04:46:31;;;;;;;47.88;35.50;;;;;;;;;;5082523;28;20109;-66
2022/04/24 04:48:56;;;;;;;43.55;29.90;;;;;;;;;;5088751;28;20483;-64
2022/04/24 04:51:22;;;;;;;36.35;27.90;;;;;;;;;;5082270;28;20040;-67
2022/04/24 04:53:47;;;;;;;25.58;22.88;;;;;;;;;;5087103;28;20040;-67
2022/04/24 04:56:13;;;;;;;23.80;21.40;;;;;;;;;;5078753;28;20498;-67
2022/04/24 04:58:39;;;;;;;17.98;16.48;;;;;;;;;;5068983;28;20036;-67
2022/04/24 05:01:04;;;;;;;17.13;15.85;;;;;;;;;;5069160;28;20062;-66
2022/04/24 05:03:30;;;;;;;16.05;14.77;;;;;;;;;;5084502;28;20084;-66
2022/04/24 05:05:56;;;;;;;15.27;14.25;;;;;;;;;;5081016;28;20519;-65
2022/04/24 05:08:22;;;;;;;14.18;13.18;;;;;;;;;;5083117;28;20020;-67
2022/04/24 05:10:48;;;;;;;13.18;12.38;;;;;;;;;;5072452;28;20560;-66
2022/04/24 05:13:13;;;;;;;13.85;12.85;;;;;;;;;;5086864;28;20109;-66
2022/04/24 05:15:39;;;;;;;13.55;12.55;;;;;;;;;;5083711;28;20417;-66
2022/04/24 05:18:04;;;;;;;12.77;11.98;;;;;;;;;;5082857;28;20028;-65
2022/04/24 05:20:30;;;;;;;12.65;11.88;;;;;;;;;;5078060;28;20036;-67
2022/04/24 05:23:06;;;;;;;12.60;11.70;;;;;;;;;;5083766;28;20498;-67
2022/04/24 05:25:33;;;;;;;13.48;12.63;;;;;;;;;;5079086;28;20040;-67
2022/04/24 05:28:00;;;;;;;12.75;11.95;;;;;;;;;;5080971;28;20031;-66
2022/04/24 05:30:27;;;;;;;12.02;11.32;;;;;;;;;;5080116;28;20068;-66
2022/04/24 05:32:52;;;;;;;12.90;12.07;;;;;;;;;;5085499;28;20391;-67
2022/04/24 05:35:18;;;;;;;12.43;11.73;;;;;;;;;;5075486;28;20487;-67
2022/04/24 05:37:45;;;;;;;13.20;12.20;;;;;;;;;;5079527;28;20027;-66
2022/04/24 05:40:11;;;;;;;12.88;12.05;;;;;;;;;;5068168;28;20033;-66
2022/04/24 05:42:53;;;;;;;13.38;12.48;;;;;;;;;;5071252;28;20055;-66
2022/04/24 05:45:22;;;;;;;14.10;13.20;;;;;;;;;;5083510;28;20028;-66
2022/04/24 05:47:51;;;;;;;14.25;13.13;;;;;;;;;;5067824;28;20116;-68
2022/04/24 05:50:17;;;;;;;14.30;13.27;;;;;;;;;;5072766;28;20677;-67
2022/04/24 05:52:43;;;;;;;13.05;12.35;;;;;;;;;;5082406;28;20040;-66
2022/04/24 05:55:09;;;;;;;13.98;12.95;;;;;;;;;;5082312;28;20036;-67
2022/04/24 05:57:35;;;;;;;13.23;12.48;;;;;;;;;;5071628;28;20039;-67
2022/04/24 06:00:03;;;;;;;13.30;12.50;;;;;;;;;;5075891;28;20082;-67
2022/04/24 06:02:37;;;;;;;13.15;12.38;;;;;;;;;;5076615;28;20032;-66
2022/04/24 06:05:03;;;;;;;13.55;12.60;;;;;;;;;;5067887;28;20090;-67
2022/04/24 06:07:29;;;;;;;13.40;12.50;;;;;;;;;;5090135;28;20063;-66
2022/04/24 06:09:54;;;;;;;13.15;12.35;;;;;;;;;;5081777;28;20097;-64
2022/04/24 06:12:20;;;;;;;13.60;12.77;;;;;;;;;;5078268;28;20063;-66
2022/04/24 06:14:46;;;;;;;13.07;12.27;;;;;;;;;;5077937;28;20028;-66
2022/04/24 06:17:11;;;;;;;13.30;12.50;;;;;;;;;;5077986;28;20111;-65
2022/04/24 06:19:37;;;;;;;12.80;12.00;;;;;;;;;;5079755;28;20028;-65
2022/04/24 06:22:03;;;;;;;12.50;11.80;;;;;;;;;;5078091;28;20043;-66
2022/04/24 06:24:29;;;;;;;12.02;11.43;;;;;;;;;;5076793;28;20043;-68
2022/04/24 06:26:55;;;;;;;12.40;11.60;;;;;;;;;;5080916;28;20020;-67
2022/04/24 06:29:20;;;;;;;12.75;12.05;;;;;;;;;;5077408;28;20505;-67
2022/04/24 06:31:46;;;;;;;12.90;12.10;;;;;;;;;;5076949;28;20158;-67
2022/04/24 06:34:11;;;;;;;12.95;12.18;;;;;;;;;;5077511;28;20629;-66
2022/04/24 06:36:37;;;;;;;12.75;12.05;;;;;;;;;;5077644;28;20096;-67
2022/04/24 06:39:03;;;;;;;13.02;12.18;;;;;;;;;;5079886;28;20568;-66
2022/04/24 06:41:29;;;;;;;13.00;12.20;;;;;;;;;;5086768;28;20130;-66
2022/04/24 06:43:55;;;;;;;12.75;12.05;;;;;;;;;;5086829;28;20036;-67
2022/04/24 06:46:21;;;;;;;13.00;12.23;;;;;;;;;;5085309;28;20043;-67
2022/04/24 06:48:47;;;;;;;13.27;12.48;;;;;;;;;;5090267;28;20052;-66
2022/04/24 06:51:12;;;;;;;13.10;12.05;;;;;;;;;;5090272;28;20043;-66
2022/04/24 06:53:39;;;;;;;12.80;12.00;;;;;;;;;;5090926;28;20038;-66
2022/04/24 06:56:05;;;;;;;13.00;12.30;;;;;;;;;;5085550;28;20036;-65
2022/04/24 06:58:31;;;;;;;13.48;12.68;;;;;;;;;;5088919;28;20020;-66
2022/04/24 07:00:57;;;;;;;13.18;12.43;;;;;;;;;;5074329;28;20048;-66
2022/04/24 07:03:23;;;;;;;13.10;12.30;;;;;;;;;;5085569;28;20527;-65
2022/04/24 07:05:50;;;;;;;12.95;12.25;;;;;;;;;;5076395;28;20116;-66
2022/04/24 07:08:15;;;;;;;12.65;11.95;;;;;;;;;;5081229;28;20132;-66
2022/04/24 07:10:41;;;;;;;12.88;12.07;;;;;;;;;;5073168;28;20111;-65
2022/04/24 07:13:07;;;;;;;12.77;11.90;;;;;;;;;;5086007;28;20376;-65
2022/04/24 07:15:35;;;;;;;12.45;11.75;;;;;;;;;;5083787;28;20503;-65
2022/04/24 07:18:01;;;;;;;12.27;11.57;;;;;;;;;;5089241;28;20027;-65
2022/04/24 07:20:29;;;;;;;12.70;12.00;;;;;;;;;;5089726;28;20035;-65
2022/04/24 07:23:02;;;;;;;12.35;11.45;;;;;;;;;;5088519;28;20036;-66
2022/04/24 07:25:33;;;;;;;12.00;11.30;;;;;;;;;;5085021;28;20559;-65
2022/04/24 07:27:58;;;;;;;12.70;12.00;;;;;;;;;;5079450;28;20032;-65
2022/04/24 07:30:24;;;;;;;12.00;11.40;;;;;;;;;;5085958;28;20042;-66
2022/04/24 07:32:53;;;;;;;12.30;11.55;;;;;;;;;;5082885;28;20035;-66
2022/04/24 07:35:22;;;;;;;12.27;11.57;;;;;;;;;;5084541;28;20032;-66
2022/04/24 07:37:49;;;;;;;12.13;11.38;;;;;;;;;;5085826;28;20040;-66
2022/04/24 07:40:17;;;;;;;12.20;11.50;;;;;;;;;;5074697;28;20032;-67
2022/04/24 07:43:10;;;;;;;12.07;11.27;;;;;;;;;;5071110;28;20040;-65
2022/04/24 07:45:40;;;;;;;12.40;11.70;;;;;;;;;;5082231;28;20044;-66
2022/04/24 07:48:08;;;;;;;12.45;11.75;;;;;;;;;;5074544;28;20576;-66
2022/04/24 07:50:36;;;;;;;12.70;12.00;;;;;;;;;;5083263;28;20094;-65
2022/04/24 07:53:03;;;;;;;12.67;11.80;;;;;;;;;;5085289;28;20097;-66
2022/04/24 07:55:29;;;;;;;12.60;11.80;;;;;;;;;;5083756;28;20282;-67
2022/04/24 07:57:58;;;;;;;12.00;11.40;;;;;;;;;;5085836;28;20020;-66
2022/04/24 08:00:28;;;;;;;;;;;;;;;;;;5086109;28;20042;-66
2022/04/24 08:03:00;;;;;;;12.18;11.48;;;;;;;;;;5087909;28;20382;-66
2022/04/24 08:05:32;;;;;;;11.80;11.10;;;;;;;;;;5083094;28;20124;-67
2022/04/24 08:08:06;;;;;;;11.88;11.20;;;;;;;;;;5085506;28;20028;-66
2022/04/24 08:10:35;;;;;;;12.43;11.73;;;;;;;;;;5081900;28;20161;-66
2022/04/24 08:13:04;;;;;;;12.60;11.90;;;;;;;;;;5087325;28;20028;-66
2022/04/24 08:15:30;;;;;;;11.85;11.15;;;;;;;;;;5086189;28;20048;-66
2022/04/24 08:17:56;;;;;;;12.55;11.85;;;;;;;;;;5085286;28;20024;-66
2022/04/24 08:20:22;;;;;;;12.25;11.40;;;;;;;;;;5075645;28;20426;-66
2022/04/24 08:22:49;;;;;;;13.27;12.50;;;;;;;;;;5082821;28;20089;-66
2022/04/24 08:25:17;;;;;;;13.52;12.63;;;;;;;;;;5081464;28;20039;-66
2022/04/24 08:27:43;;;;;;;13.32;12.35;;;;;;;;;;5080089;28;20028;-65
2022/04/24 08:30:11;;;;;;;13.38;12.43;;;;;;;;;;5087566;28;20036;-66
2022/04/24 08:32:39;;;;;;;12.82;11.93;;;;;;;;;;5085990;28;20031;-66
2022/04/24 08:35:06;;;;;;;12.18;11.38;;;;;;;;;;5077648;28;20102;-66
2022/04/24 08:37:32;;;;;;;12.70;11.90;;;;;;;;;;5079045;28;20502;-66
2022/04/24 08:39:58;;;;;;;11.75;11.05;;;;;;;;;;5086821;28;20036;-66
2022/04/24 08:42:24;;;;;;;11.57;10.88;;;;;;;;;;5085600;28;20052;-65
2022/04/24 08:44:55;;;;;;;11.63;10.93;;;;;;;;;;5084905;28;20081;-66
2022/04/24 08:47:22;;;;;;;12.20;11.40;;;;;;;;;;5079849;28;20036;-65
2022/04/24 08:49:48;;;;;;;12.25;11.45;;;;;;;;;;5084329;28;20039;-65
2022/04/24 08:52:14;;;;;;;12.18;11.38;;;;;;;;;;5085865;28;20414;-66
2022/04/24 08:54:41;;;;;;;12.77;11.98;;;;;;;;;;5084505;28;20040;-66
2022/04/24 08:57:11;;;;;;;13.00;12.20;;;;;;;;;;5084985;28;20122;-66
2022/04/24 08:59:38;;;;;;;11.85;11.20;;;;;;;;;;5078761;28;20123;-67
2022/04/24 09:02:05;;;;;;;12.88;12.18;;;;;;;;;;5082067;28;20051;-67
2022/04/24 09:04:35;;;;;;;12.02;11.32;;;;;;;;;;5067355;28;20490;-65
2022/04/24 09:07:05;;;;;;;;;;;;;;;;;;5080734;28;20487;-66
2022/04/24 09:09:38;;;;;;;12.65;11.85;;;;;;;;;;5080885;28;20302;-67
2022/04/24 09:12:18;;;;;;;12.50;11.80;;;;;;;;;;5085667;28;20028;-66
2022/04/24 09:14:52;;;;;;;12.00;11.30;;;;;;;;;;5081516;28;20040;-66
2022/04/24 09:17:29;;;;;;;12.00;11.27;;;;;;;;;;5080731;28;20028;-67
2022/04/24 09:19:56;;;;;;;12.80;12.00;;;;;;;;;;5079096;28;20116;-66
2022/04/24 09:22:23;;;;;;;12.38;11.57;;;;;;;;;;5083509;28;20033;-66
2022/04/24 09:24:57;;;;;;;12.23;11.25;;;;;;;;;;5081042;28;20032;-66
2022/04/24 09:27:32;;;;;;;12.15;11.13;;;;;;;;;;5081396;28;20086;-67
2022/04/24 09:30:01;;;;;;;12.50;11.70;;;;;;;;;;5083124;28;20036;-66
2022/04/24 09:32:29;;;;;;;11.82;11.13;;;;;;;;;;5082483;28;20745;-66
2022/04/24 09:34:55;;;;;;;12.70;11.93;;;;;;;;;;5082402;28;20440;-67
2022/04/24 09:37:21;;;;;;;12.07;11.38;;;;;;;;;;5086104;28;20494;-66
2022/04/24 09:39:48;;;;;;;13.05;12.00;;;;;;;;;;5080516;28;20103;-66
2022/04/24 09:42:15;;;;;;;11.77;11.07;;;;;;;;;;5082680;28;20032;-66
2022/04/24 09:44:44;;;;;;;11.50;10.75;;;;;;;;;;5082228;28;20075;-67
2022/04/24 09:47:11;;;;;;;12.35;11.55;;;;;;;;;;5081134;28;20032;-65
2022/04/24 09:49:41;;;;;;;13.05;12.15;;;;;;;;;;5069702;28;20034;-65
2022/04/24 09:52:12;;;;;;;12.73;11.93;;;;;;;;;;5083884;28;20114;-65
2022/04/24 09:54:41;;;;;;;11.98;11.27;;;;;;;;;;5085461;28;20035;-66
2022/04/24 09:57:09;;;;;;;12.57;11.77;;;;;;;;;;5077651;28;20040;-66
2022/04/24 09:59:39;;;;;;;12.32;11.63;;;;;;;;;;5087927;28;20036;-67
2022/04/24 10:02:06;;;;;;;12.13;11.43;;;;;;;;;;5070459;28;20074;-66
2022/04/24 10:04:36;;;;;;;12.07;11.38;;;;;;;;;;5080873;28;20604;-67
2022/04/24 10:07:06;;;;;;;12.52;11.73;;;;;;;;;;5085542;28;20119;-67
2022/04/24 10:09:34;;;;;;;12.13;11.43;;;;;;;;;;5084560;28;20039;-67
2022/04/24 10:12:08;;;;;;;12.38;11.68;;;;;;;;;;5085091;28;20039;-66
2022/04/24 10:14:48;;;;;;;12.30;11.60;;;;;;;;;;5085584;28;20402;-67
2022/04/24 10:17:46;;;;;;;12.75;11.95;;;;;;;;;;5086955;28;20035;-66
2022/04/24 10:20:30;;;;;;;12.52;11.73;;;;;;;;;;5061593;28;20066;-66
2022/04/24 10:22:57;;;;;;;12.50;11.75;;;;;;;;;;5085547;28;20491;-68
2022/04/24 10:25:37;;;;;;;12.60;11.90;;;;;;;;;;5087851;28;20040;-67
2022/04/24 10:28:17;;;;;;;12.40;11.70;;;;;;;;;;5088107;28;20028;-68
2022/04/24 10:30:44;;;;;;;;;;;;;;;;;;5089632;28;20582;-67
2022/04/24 10:33:26;;;;;;;13.40;12.50;;;;;;;;;;5089974;28;20002;-68
2022/04/24 10:35:54;;;;;;;13.40;12.40;;;;;;;;;;5090813;28;20044;-67
2022/04/24 10:38:50;;;;;;;12.75;12.05;;;;;;;;;;5080488;28;20106;-67
2022/04/24 10:41:17;;;;;;;12.90;12.10;;;;;;;;;;5074166;28;20040;-67
2022/04/24 10:43:48;;;;;;;13.07;12.27;;;;;;;;;;5082071;28;20527;-67
2022/04/24 10:46:19;;;;;;;12.70;11.90;;;;;;;;;;5081484;28;20135;-68
2022/04/24 10:48:48;;;;;;;13.20;12.40;;;;;;;;;;5088643;28;20032;-67
2022/04/24 10:51:32;;;;;;;12.50;11.70;;;;;;;;;;5086485;28;20046;-66
2022/04/24 10:54:04;;;;;;;12.50;11.80;;;;;;;;;;5087325;28;20523;-66
2022/04/24 10:56:31;;;;;;;12.18;11.48;;;;;;;;;;5077863;28;20068;-66
2022/04/24 10:59:11;;;;;;;12.77;12.07;;;;;;;;;;5079598;28;20039;-66
2022/04/24 11:01:41;;;;;;;12.90;12.13;;;;;;;;;;5082763;28;20097;-65
2022/04/24 11:04:08;;;;;;;12.70;12.00;;;;;;;;;;5078874;28;20391;-66
2022/04/24 11:06:34;;;;;;;12.55;11.85;;;;;;;;;;5076116;28;20036;-66
2022/04/24 11:09:11;;;;;;;12.85;12.10;;;;;;;;;;5080602;28;20070;-66
2022/04/24 11:12:01;;;;;;;12.90;12.20;;;;;;;;;;5069822;28;20040;-67
2022/04/24 11:14:28;;;;;;;12.65;11.95;;;;;;;;;;5080485;28;20131;-66
2022/04/24 11:16:57;;;;;;;12.75;12.05;;;;;;;;;;5085310;28;20032;-67
2022/04/24 11:19:25;;;;;;;12.75;11.90;;;;;;;;;;5075541;28;20024;-67
2022/04/24 11:21:59;;;;;;;12.75;11.85;;;;;;;;;;5083074;28;20036;-67
2022/04/24 11:24:27;;;;;;;12.38;11.68;;;;;;;;;;5080972;28;20089;-67
2022/04/24 11:26:54;;;;;;;13.40;12.50;;;;;;;;;;5084581;28;20109;-66
2022/04/24 11:29:20;;;;;;;13.60;12.45;;;;;;;;;;5072645;28;20072;-66
2022/04/24 11:31:47;;;;;;;13.65;12.48;;;;;;;;;;5069394;28;20070;-67
2022/04/24 11:34:16;;;;;;;12.98;12.18;;;;;;;;;;5068836;28;20486;-66
2022/04/24 11:36:42;;;;;;;13.18;12.27;;;;;;;;;;5080673;28;20175;-66
2022/04/24 11:39:08;;;;;;;12.88;11.90;;;;;;;;;;5077324;28;20068;-66
2022/04/24 11:41:35;;;;;;;13.48;12.68;;;;;;;;;;5068515;28;20039;-67
2022/04/24 11:44:01;;;;;;;13.23;12.40;;;;;;;;;;5081794;28;20036;-66
2022/04/24 11:51:55;;;;;;;12.90;12.07;;;;;;;;;;5080768;28;20043;-65
2022/04/24 11:54:23;;;;;;;12.95;12.25;;;;;;;;;;5083027;28;20041;-66
2022/04/24 11:56:53;;;;;;;13.27;12.43;;;;;;;;;;5070520;28;20039;-67
2022/04/24 11:59:21;;;;;;;13.48;12.50;;;;;;;;;;5074331;28;20161;-64
2022/04/24 12:01:58;;;;;;;13.68;12.80;;;;;;;;;;5075650;28;20086;-68
2022/04/24 12:04:28;;;;;;;12.65;11.85;;;;;;;;;;5078239;28;20097;-66
2022/04/24 12:07:14;;;;;;;12.48;11.50;;;;;;;;;;5077861;28;20036;-65
2022/04/24 12:09:39;;;;;;;12.73;12.02;;;;;;;;;;5073340;28;20048;-67
2022/04/24 12:12:08;;;;;;;12.75;11.95;;;;;;;;;;5085846;28;20038;-67
2022/04/24 12:14:35;;;;;;;12.45;11.75;;;;;;;;;;5072808;28;20062;-66
2022/04/24 12:17:08;;;;;;;12.90;12.10;;;;;;;;;;5067549;28;20403;-66
2022/04/24 12:19:35;;;;;;;13.00;12.20;;;;;;;;;;5074754;28;20034;-66
2022/04/24 12:22:09;;;;;;;12.88;12.07;;;;;;;;;;5082507;28;20456;-66
2022/04/24 12:24:39;;;;;;;13.10;12.10;;;;;;;;;;5078829;28;20203;-66
2022/04/24 12:27:09;;;;;;;12.68;11.98;;;;;;;;;;5080688;28;20047;-66
2022/04/24 12:29:48;;;;;;;13.05;12.25;;;;;;;;;;5077932;28;20522;-65
2022/04/24 12:32:15;;;;;;;12.93;12.10;;;;;;;;;;5073546;28;20040;-66
2022/04/24 12:34:42;;;;;;;12.85;12.07;;;;;;;;;;5084768;28;20499;-64
2022/04/24 12:37:09;;;;;;;13.07;12.27;;;;;;;;;;5076525;28;20470;-66
2022/04/24 12:39:35;;;;;;;12.32;11.63;;;;;;;;;;5081156;28;20495;-66
2022/04/24 12:42:17;;;;;;;12.43;11.63;;;;;;;;;;5077726;28;20046;-67
2022/04/24 12:44:44;;;;;;;12.77;12.07;;;;;;;;;;5083378;28;20615;-66
2022/04/24 12:47:10;;;;;;;12.77;11.98;;;;;;;;;;5075872;28;20133;-66
2022/04/24 12:49:36;;;;;;;12.75;11.95;;;;;;;;;;5082874;28;20036;-66
2022/04/24 12:52:02;;;;;;;12.75;12.05;;;;;;;;;;5084702;28;20680;-66
2022/04/24 12:54:28;;;;;;;12.73;11.85;;;;;;;;;;5085233;28;20612;-66
2022/04/24 12:56:54;;;;;;;13.20;12.40;;;;;;;;;;5092351;28;20107;-63
2022/04/24 12:59:20;;;;;;;12.93;12.23;;;;;;;;;;5076484;28;20089;-66
2022/04/24 13:01:45;;;;;;;12.93;12.02;;;;;;;;;;5077241;28;20032;-66
2022/04/24 13:04:11;;;;;;;13.27;12.48;;;;;;;;;;5079530;28;20365;-65
2022/04/24 13:06:37;;;;;;;13.20;12.40;;;;;;;;;;5084696;28;20511;-67
2022/04/24 13:09:04;;;;;;;13.30;12.38;;;;;;;;;;5084755;28;20038;-66
2022/04/24 13:11:30;;;;;;;13.20;12.38;;;;;;;;;;5087447;28;20031;-66
2022/04/24 13:13:56;;;;;;;12.73;12.00;;;;;;;;;;5080103;28;20041;-64
2022/04/24 13:19:11;;;;;;;13.35;12.45;;;;;;;;;;5067086;28;20040;-65
2022/04/24 13:21:37;;;;;;;14.10;13.27;;;;;;;;;;5076029;28;20372;-66
2022/04/24 13:24:03;;;;;;;13.30;12.50;;;;;;;;;;5076676;28;20445;-65
2022/04/24 13:26:30;;;;;;;13.18;12.38;;;;;;;;;;5074367;28;20080;-65
2022/04/24 13:28:55;;;;;;;13.13;12.43;;;;;;;;;;5074537;28;20039;-65
2022/04/24 13:31:21;;;;;;;13.23;12.43;;;;;;;;;;5079246;28;20552;-65
2022/04/24 13:33:47;;;;;;;13.50;12.70;;;;;;;;;;5068887;28;20047;-65
2022/04/24 13:36:13;;;;;;;12.93;12.23;;;;;;;;;;5071261;28;20033;-65
2022/04/24 13:38:48;;;;;;;13.35;12.63;;;;;;;;;;5078864;28;20039;-65
2022/04/24 13:41:13;;;;;;;13.85;13.02;;;;;;;;;;5072644;28;20039;-66
2022/04/24 13:43:39;;;;;;;13.65;12.85;;;;;;;;;;5076570;28;20047;-66
2022/04/24 13:46:06;;;;;;;13.73;12.85;;;;;;;;;;5081366;28;20037;-65
2022/04/24 13:48:33;;;;;;;13.20;12.50;;;;;;;;;;5079391;28;20491;-66
2022/04/24 13:50:59;;;;;;;13.20;12.35;;;;;;;;;;5082168;28;20024;-66
2022/04/24 13:53:29;;;;;;;13.10;12.30;;;;;;;;;;5082942;28;20041;-66
2022/04/24 13:55:57;;;;;;;13.60;12.73;;;;;;;;;;5078186;28;20150;-65
2022/04/24 13:58:23;;;;;;;13.80;12.80;;;;;;;;;;5074717;28;20035;-65
2022/04/24 14:00:51;;;;;;;13.60;12.80;;;;;;;;;;5066149;28;20041;-65
2022/04/24 14:03:18;;;;;;;12.90;12.20;;;;;;;;;;5072079;28;20055;-66
2022/04/24 14:05:45;;;;;;;13.30;12.50;;;;;;;;;;5080027;28;20609;-66
2022/04/24 14:08:19;;;;;;;13.25;12.55;;;;;;;;;;5081560;28;20033;-66
2022/04/24 14:10:47;;;;;;;13.45;12.75;;;;;;;;;;5082700;28;20036;-65
2022/04/24 14:13:13;;;;;;;13.82;13.02;;;;;;;;;;5083286;28;20032;-67
2022/04/24 14:15:39;;;;;;;14.07;13.27;;;;;;;;;;5083898;28;20067;-66
2022/04/24 14:18:05;;;;;;;12.65;11.85;;;;;;;;;;5075624;28;20041;-66
2022/04/24 14:20:31;;;;;;;12.93;12.20;;;;;;;;;;5080640;28;20406;-65
2022/04/24 14:22:57;;;;;;;13.45;12.65;;;;;;;;;;5077736;28;20047;-66
2022/04/24 14:25:23;;;;;;;13.48;12.57;;;;;;;;;;5081806;28;20028;-65
2022/04/24 14:27:50;;;;;;;13.88;12.95;;;;;;;;;;5078677;28;20036;-65
2022/04/24 14:30:16;;;;;;;15.98;15.07;;;;;;;;;;5073550;28;20063;-64